Meteorológiai információk azoknak akik tudják olvasni.

METAR = LHBP 161830Z 29013KT 260V320 9999 -SHRA SCT040 BKN100 22/20 Q1013 BECMG NSW

9 órás TAF = TAF TAF LHBP 242330Z 2423/2424 30008KT CAVOK BECMG 2506/2509 24010KT OVC030 TEMPO 2509/2515 24015G25KT 8000 -RA BKN013 OVC025 BECMG 2515/2518 30008KT CAVOK

24 órás TAF = TAF TAF LHBP 161715Z 1618/1718 31009KT CAVOK TEMPO 1618/1624 VRB15G25KT 5000 TSRA SHRA SCT060CB TEMPO 1700/1706 -SHRA BECMG 1702/1704 01006KT TEMPO 1706/1718 VRB15G25KT -TSRA SCT030CB

ÁLLOMÁS.................... LHBP
ÉSZLELÉS................... Sun Jun 16, 20:30 CEST
MOST....................... Sun Jun 16, 20:40 CEST
IDŐ........................ 10 perccel ezelőtt
SZÉL....................... NYÉNY irányból 13 csomó
LÁTÁSTÁVOLSÁG.............. 6 mérföld
IDŐJÁRÁS................... gyenge eső zápor
FELHŐZET................... erősen felhős
HŐMÉRSÉKLET................ 72°F (22°C)
HARMATPONT................. 68°F (20°C)
PÁRATARTALOM............... 88%
LÉGNYOMÁS.................. 1013 hPa (29.91 in Hg)

További információ LHBP állomásról

Meteor információ kérése:        állomásról.    

 

www.tothgeza.hu

 

English version
Copyright © 2003-2019 Tóth Géza Minden jog fenntartva.